sensor_id;sensor_type;location;lat;lon;timestamp;P1;durP1;ratioP1;P2;durP2;ratioP2
793;SDS011;380;48.738;9.214;2022-07-22T00:00:45;5.32;;;4.53;;
793;SDS011;380;48.738;9.214;2022-07-22T00:03:11;6.78;;;5.10;;
793;SDS011;380;48.738;9.214;2022-07-22T00:05:40;5.00;;;4.30;;
793;SDS011;380;48.738;9.214;2022-07-22T00:08:09;6.13;;;4.53;;
793;SDS011;380;48.738;9.214;2022-07-22T00:10:37;4.85;;;4.35;;
793;SDS011;380;48.738;9.214;2022-07-22T00:13:12;8.13;;;5.15;;
793;SDS011;380;48.738;9.214;2022-07-22T00:15:46;5.80;;;4.75;;
793;SDS011;380;48.738;9.214;2022-07-22T00:18:22;6.05;;;4.13;;
793;SDS011;380;48.738;9.214;2022-07-22T00:20:55;6.32;;;4.70;;
793;SDS011;380;48.738;9.214;2022-07-22T00:23:24;5.47;;;4.90;;
793;SDS011;380;48.738;9.214;2022-07-22T00:25:50;5.43;;;4.93;;
793;SDS011;380;48.738;9.214;2022-07-22T00:28:37;4.82;;;4.30;;
793;SDS011;380;48.738;9.214;2022-07-22T00:31:12;6.82;;;5.28;;
793;SDS011;380;48.738;9.214;2022-07-22T00:36:26;5.18;;;4.68;;
793;SDS011;380;48.738;9.214;2022-07-22T00:38:52;5.15;;;4.47;;
793;SDS011;380;48.738;9.214;2022-07-22T00:41:25;5.00;;;4.13;;
793;SDS011;380;48.738;9.214;2022-07-22T00:46:51;5.10;;;4.45;;
793;SDS011;380;48.738;9.214;2022-07-22T00:49:20;6.35;;;4.63;;
793;SDS011;380;48.738;9.214;2022-07-22T00:51:49;6.30;;;4.75;;
793;SDS011;380;48.738;9.214;2022-07-22T00:54:26;5.55;;;4.25;;
793;SDS011;380;48.738;9.214;2022-07-22T00:57:01;4.95;;;4.07;;
793;SDS011;380;48.738;9.214;2022-07-22T00:59:27;6.97;;;4.78;;
793;SDS011;380;48.738;9.214;2022-07-22T01:02:00;5.78;;;4.38;;
793;SDS011;380;48.738;9.214;2022-07-22T01:04:26;6.25;;;4.95;;
793;SDS011;380;48.738;9.214;2022-07-22T01:07:06;6.18;;;5.18;;
793;SDS011;380;48.738;9.214;2022-07-22T01:09:47;7.15;;;5.15;;
793;SDS011;380;48.738;9.214;2022-07-22T01:12:31;5.75;;;4.38;;
793;SDS011;380;48.738;9.214;2022-07-22T01:15:02;4.95;;;4.45;;
793;SDS011;380;48.738;9.214;2022-07-22T01:17:31;5.53;;;4.90;;
793;SDS011;380;48.738;9.214;2022-07-22T01:20:07;6.10;;;5.28;;
793;SDS011;380;48.738;9.214;2022-07-22T01:22:39;7.00;;;5.82;;
793;SDS011;380;48.738;9.214;2022-07-22T01:25:09;5.47;;;4.75;;
793;SDS011;380;48.738;9.214;2022-07-22T01:27:42;5.80;;;5.20;;
793;SDS011;380;48.738;9.214;2022-07-22T01:30:26;6.53;;;5.50;;
793;SDS011;380;48.738;9.214;2022-07-22T01:32:59;7.43;;;4.55;;
793;SDS011;380;48.738;9.214;2022-07-22T01:35:30;7.93;;;5.22;;
793;SDS011;380;48.738;9.214;2022-07-22T01:38:02;6.68;;;5.22;;
793;SDS011;380;48.738;9.214;2022-07-22T01:40:31;6.88;;;5.38;;
793;SDS011;380;48.738;9.214;2022-07-22T01:43:00;7.00;;;5.00;;
793;SDS011;380;48.738;9.214;2022-07-22T01:45:32;5.43;;;4.85;;
793;SDS011;380;48.738;9.214;2022-07-22T01:48:02;8.13;;;5.40;;
793;SDS011;380;48.738;9.214;2022-07-22T01:50:31;6.22;;;5.57;;
793;SDS011;380;48.738;9.214;2022-07-22T01:53:07;6.53;;;5.28;;
793;SDS011;380;48.738;9.214;2022-07-22T01:55:38;5.95;;;5.00;;
793;SDS011;380;48.738;9.214;2022-07-22T01:58:25;8.02;;;4.53;;
793;SDS011;380;48.738;9.214;2022-07-22T02:01:12;5.75;;;5.15;;
793;SDS011;380;48.738;9.214;2022-07-22T02:03:41;5.95;;;5.00;;
793;SDS011;380;48.738;9.214;2022-07-22T02:06:16;7.00;;;6.30;;
793;SDS011;380;48.738;9.214;2022-07-22T02:08:54;6.68;;;5.88;;
793;SDS011;380;48.738;9.214;2022-07-22T02:11:33;8.00;;;5.80;;
793;SDS011;380;48.738;9.214;2022-07-22T02:14:02;9.07;;;5.55;;
793;SDS011;380;48.738;9.214;2022-07-22T02:16:28;6.30;;;5.68;;
793;SDS011;380;48.738;9.214;2022-07-22T02:19:03;5.78;;;4.97;;
793;SDS011;380;48.738;9.214;2022-07-22T02:24:27;7.05;;;6.25;;
793;SDS011;380;48.738;9.214;2022-07-22T02:26:57;9.30;;;6.28;;
793;SDS011;380;48.738;9.214;2022-07-22T02:29:23;8.85;;;6.28;;
793;SDS011;380;48.738;9.214;2022-07-22T02:31:51;5.95;;;5.13;;
793;SDS011;380;48.738;9.214;2022-07-22T02:34:27;7.72;;;5.80;;
793;SDS011;380;48.738;9.214;2022-07-22T02:36:53;5.85;;;4.88;;
793;SDS011;380;48.738;9.214;2022-07-22T02:39:29;8.73;;;6.28;;
793;SDS011;380;48.738;9.214;2022-07-22T02:42:00;7.72;;;5.78;;
793;SDS011;380;48.738;9.214;2022-07-22T02:44:41;6.95;;;6.18;;
793;SDS011;380;48.738;9.214;2022-07-22T02:47:13;6.00;;;4.88;;
793;SDS011;380;48.738;9.214;2022-07-22T02:49:44;6.20;;;5.60;;
793;SDS011;380;48.738;9.214;2022-07-22T02:52:24;7.57;;;6.78;;
793;SDS011;380;48.738;9.214;2022-07-22T02:55:08;7.35;;;6.15;;
793;SDS011;380;48.738;9.214;2022-07-22T02:57:36;8.20;;;6.30;;
793;SDS011;380;48.738;9.214;2022-07-22T03:00:13;8.65;;;6.50;;
793;SDS011;380;48.738;9.214;2022-07-22T03:02:58;6.40;;;5.80;;
793;SDS011;380;48.738;9.214;2022-07-22T03:05:27;7.13;;;6.22;;
793;SDS011;380;48.738;9.214;2022-07-22T03:07:57;8.32;;;6.07;;
793;SDS011;380;48.738;9.214;2022-07-22T03:10:39;7.82;;;6.72;;
793;SDS011;380;48.738;9.214;2022-07-22T03:13:39;7.32;;;6.10;;
793;SDS011;380;48.738;9.214;2022-07-22T03:16:05;7.50;;;6.47;;
793;SDS011;380;48.738;9.214;2022-07-22T03:18:35;11.02;;;6.72;;
793;SDS011;380;48.738;9.214;2022-07-22T03:21:29;11.75;;;6.90;;
793;SDS011;380;48.738;9.214;2022-07-22T03:27:03;8.27;;;5.95;;
793;SDS011;380;48.738;9.214;2022-07-22T03:29:32;8.35;;;6.55;;
793;SDS011;380;48.738;9.214;2022-07-22T03:32:01;8.40;;;7.25;;
793;SDS011;380;48.738;9.214;2022-07-22T03:34:33;7.50;;;6.70;;
793;SDS011;380;48.738;9.214;2022-07-22T03:37:23;7.88;;;6.68;;
793;SDS011;380;48.738;9.214;2022-07-22T03:39:52;9.45;;;7.47;;
793;SDS011;380;48.738;9.214;2022-07-22T03:42:21;7.65;;;6.85;;
793;SDS011;380;48.738;9.214;2022-07-22T03:45:10;7.78;;;6.65;;
793;SDS011;380;48.738;9.214;2022-07-22T03:47:37;7.45;;;6.75;;
793;SDS011;380;48.738;9.214;2022-07-22T03:50:25;8.15;;;7.10;;
793;SDS011;380;48.738;9.214;2022-07-22T03:53:12;10.82;;;7.65;;
793;SDS011;380;48.738;9.214;2022-07-22T03:55:41;8.73;;;7.82;;
793;SDS011;380;48.738;9.214;2022-07-22T03:58:28;8.85;;;7.15;;
793;SDS011;380;48.738;9.214;2022-07-22T04:01:00;9.50;;;7.63;;
793;SDS011;380;48.738;9.214;2022-07-22T04:06:19;8.35;;;7.53;;
793;SDS011;380;48.738;9.214;2022-07-22T04:08:57;8.23;;;7.40;;
793;SDS011;380;48.738;9.214;2022-07-22T04:11:37;10.13;;;8.05;;
793;SDS011;380;48.738;9.214;2022-07-22T04:14:30;8.13;;;6.93;;
793;SDS011;380;48.738;9.214;2022-07-22T04:22:55;12.57;;;7.85;;
793;SDS011;380;48.738;9.214;2022-07-22T04:25:47;8.50;;;7.60;;
793;SDS011;380;48.738;9.214;2022-07-22T04:28:17;8.75;;;7.68;;
793;SDS011;380;48.738;9.214;2022-07-22T04:30:48;9.82;;;7.93;;
793;SDS011;380;48.738;9.214;2022-07-22T04:33:25;9.05;;;8.15;;
793;SDS011;380;48.738;9.214;2022-07-22T04:35:55;9.13;;;7.47;;
793;SDS011;380;48.738;9.214;2022-07-22T04:38:53;8.45;;;7.65;;
793;SDS011;380;48.738;9.214;2022-07-22T04:41:59;7.93;;;7.13;;
793;SDS011;380;48.738;9.214;2022-07-22T04:44:27;9.43;;;7.35;;
793;SDS011;380;48.738;9.214;2022-07-22T04:46:57;8.05;;;7.25;;
793;SDS011;380;48.738;9.214;2022-07-22T04:49:44;9.18;;;8.15;;
793;SDS011;380;48.738;9.214;2022-07-22T04:52:28;11.18;;;8.38;;
793;SDS011;380;48.738;9.214;2022-07-22T04:55:23;10.63;;;8.35;;
793;SDS011;380;48.738;9.214;2022-07-22T04:57:52;8.80;;;7.97;;
793;SDS011;380;48.738;9.214;2022-07-22T05:00:25;7.50;;;6.80;;
793;SDS011;380;48.738;9.214;2022-07-22T05:03:10;12.18;;;8.48;;
793;SDS011;380;48.738;9.214;2022-07-22T05:08:41;10.30;;;8.80;;
793;SDS011;380;48.738;9.214;2022-07-22T05:11:20;9.20;;;7.72;;
793;SDS011;380;48.738;9.214;2022-07-22T05:16:23;12.75;;;8.30;;
793;SDS011;380;48.738;9.214;2022-07-22T05:19:09;9.75;;;8.57;;
793;SDS011;380;48.738;9.214;2022-07-22T05:21:37;9.18;;;7.28;;
793;SDS011;380;48.738;9.214;2022-07-22T05:26:55;9.30;;;8.35;;
793;SDS011;380;48.738;9.214;2022-07-22T05:29:28;8.90;;;8.00;;
793;SDS011;380;48.738;9.214;2022-07-22T05:32:03;9.13;;;8.13;;
793;SDS011;380;48.738;9.214;2022-07-22T05:34:49;10.48;;;8.00;;
793;SDS011;380;48.738;9.214;2022-07-22T05:37:22;12.52;;;8.43;;
793;SDS011;380;48.738;9.214;2022-07-22T05:40:07;9.25;;;8.35;;
793;SDS011;380;48.738;9.214;2022-07-22T05:42:45;8.90;;;8.00;;
793;SDS011;380;48.738;9.214;2022-07-22T05:45:11;10.95;;;7.68;;
793;SDS011;380;48.738;9.214;2022-07-22T05:48:04;11.50;;;8.98;;
793;SDS011;380;48.738;9.214;2022-07-22T05:50:40;11.75;;;8.10;;
793;SDS011;380;48.738;9.214;2022-07-22T05:53:17;12.23;;;8.77;;
793;SDS011;380;48.738;9.214;2022-07-22T05:58:19;10.27;;;8.23;;
793;SDS011;380;48.738;9.214;2022-07-22T06:00:57;9.10;;;8.18;;
793;SDS011;380;48.738;9.214;2022-07-22T06:03:43;11.05;;;8.77;;
793;SDS011;380;48.738;9.214;2022-07-22T06:06:21;9.25;;;8.10;;
793;SDS011;380;48.738;9.214;2022-07-22T06:11:51;11.52;;;8.52;;
793;SDS011;380;48.738;9.214;2022-07-22T06:14:30;10.98;;;9.38;;
793;SDS011;380;48.738;9.214;2022-07-22T06:17:10;11.20;;;9.20;;
793;SDS011;380;48.738;9.214;2022-07-22T06:19:42;10.07;;;9.10;;
793;SDS011;380;48.738;9.214;2022-07-22T06:22:26;10.27;;;9.13;;
793;SDS011;380;48.738;9.214;2022-07-22T06:24:56;10.98;;;9.52;;
793;SDS011;380;48.738;9.214;2022-07-22T06:27:34;11.98;;;8.45;;
793;SDS011;380;48.738;9.214;2022-07-22T06:30:21;13.40;;;9.23;;
793;SDS011;380;48.738;9.214;2022-07-22T06:33:05;10.38;;;9.30;;
793;SDS011;380;48.738;9.214;2022-07-22T06:36:00;11.15;;;9.32;;
793;SDS011;380;48.738;9.214;2022-07-22T06:38:43;11.90;;;9.18;;
793;SDS011;380;48.738;9.214;2022-07-22T06:41:22;11.50;;;9.15;;
793;SDS011;380;48.738;9.214;2022-07-22T06:43:52;11.32;;;9.82;;
793;SDS011;380;48.738;9.214;2022-07-22T06:46:38;10.43;;;8.63;;
793;SDS011;380;48.738;9.214;2022-07-22T06:49:31;10.75;;;8.65;;
793;SDS011;380;48.738;9.214;2022-07-22T06:51:58;10.05;;;8.75;;
793;SDS011;380;48.738;9.214;2022-07-22T06:54:39;11.38;;;8.90;;
793;SDS011;380;48.738;9.214;2022-07-22T06:57:24;10.75;;;9.60;;
793;SDS011;380;48.738;9.214;2022-07-22T06:59:54;10.38;;;9.32;;
793;SDS011;380;48.738;9.214;2022-07-22T07:02:32;10.88;;;9.77;;
793;SDS011;380;48.738;9.214;2022-07-22T07:05:08;11.88;;;9.77;;
793;SDS011;380;48.738;9.214;2022-07-22T07:07:51;10.82;;;8.95;;
793;SDS011;380;48.738;9.214;2022-07-22T07:10:27;9.52;;;8.43;;
793;SDS011;380;48.738;9.214;2022-07-22T07:13:03;11.85;;;9.68;;
793;SDS011;380;48.738;9.214;2022-07-22T07:15:52;14.13;;;9.82;;
793;SDS011;380;48.738;9.214;2022-07-22T07:18:33;13.43;;;9.07;;
793;SDS011;380;48.738;9.214;2022-07-22T07:21:02;11.32;;;10.13;;
793;SDS011;380;48.738;9.214;2022-07-22T07:23:29;17.80;;;9.30;;
793;SDS011;380;48.738;9.214;2022-07-22T07:26:21;12.23;;;10.48;;
793;SDS011;380;48.738;9.214;2022-07-22T07:28:51;15.18;;;11.00;;
793;SDS011;380;48.738;9.214;2022-07-22T07:31:27;10.80;;;9.57;;
793;SDS011;380;48.738;9.214;2022-07-22T07:34:02;11.38;;;8.85;;
793;SDS011;380;48.738;9.214;2022-07-22T07:36:37;11.10;;;9.82;;
793;SDS011;380;48.738;9.214;2022-07-22T07:39:13;13.20;;;9.52;;
793;SDS011;380;48.738;9.214;2022-07-22T07:44:32;11.18;;;8.40;;
793;SDS011;380;48.738;9.214;2022-07-22T07:47:00;10.50;;;9.45;;
793;SDS011;380;48.738;9.214;2022-07-22T07:49:36;10.93;;;8.80;;
793;SDS011;380;48.738;9.214;2022-07-22T07:52:21;8.65;;;7.82;;
793;SDS011;380;48.738;9.214;2022-07-22T07:54:56;7.55;;;6.85;;
793;SDS011;380;48.738;9.214;2022-07-22T07:57:35;8.07;;;7.28;;
793;SDS011;380;48.738;9.214;2022-07-22T08:00:06;9.23;;;8.07;;
793;SDS011;380;48.738;9.214;2022-07-22T08:02:36;11.27;;;8.00;;
793;SDS011;380;48.738;9.214;2022-07-22T08:05:13;8.52;;;7.75;;
793;SDS011;380;48.738;9.214;2022-07-22T08:10:20;8.18;;;7.38;;
793;SDS011;380;48.738;9.214;2022-07-22T08:13:16;9.18;;;7.70;;
793;SDS011;380;48.738;9.214;2022-07-22T08:15:54;8.20;;;6.55;;
793;SDS011;380;48.738;9.214;2022-07-22T08:18:45;8.60;;;7.72;;
793;SDS011;380;48.738;9.214;2022-07-22T08:21:16;8.93;;;8.02;;
793;SDS011;380;48.738;9.214;2022-07-22T08:23:52;9.23;;;8.32;;
793;SDS011;380;48.738;9.214;2022-07-22T08:26:24;8.85;;;7.85;;
793;SDS011;380;48.738;9.214;2022-07-22T08:28:54;11.00;;;8.23;;
793;SDS011;380;48.738;9.214;2022-07-22T08:31:40;8.88;;;7.93;;
793;SDS011;380;48.738;9.214;2022-07-22T08:34:18;7.82;;;6.65;;
793;SDS011;380;48.738;9.214;2022-07-22T08:36:49;10.10;;;7.28;;
793;SDS011;380;48.738;9.214;2022-07-22T08:39:16;8.25;;;7.13;;
793;SDS011;380;48.738;9.214;2022-07-22T08:41:45;10.27;;;7.47;;
793;SDS011;380;48.738;9.214;2022-07-22T08:44:32;8.65;;;7.45;;
793;SDS011;380;48.738;9.214;2022-07-22T08:47:02;7.70;;;6.78;;
793;SDS011;380;48.738;9.214;2022-07-22T08:49:28;9.80;;;8.80;;
793;SDS011;380;48.738;9.214;2022-07-22T08:51:55;9.80;;;8.27;;
793;SDS011;380;48.738;9.214;2022-07-22T08:54:22;7.75;;;6.88;;
793;SDS011;380;48.738;9.214;2022-07-22T08:56:53;7.65;;;6.75;;
793;SDS011;380;48.738;9.214;2022-07-22T08:59:28;6.55;;;5.53;;
793;SDS011;380;48.738;9.214;2022-07-22T09:02:07;7.20;;;6.40;;
793;SDS011;380;48.738;9.214;2022-07-22T09:07:32;6.95;;;6.07;;
793;SDS011;380;48.738;9.214;2022-07-22T09:10:05;6.93;;;5.43;;
793;SDS011;380;48.738;9.214;2022-07-22T09:12:31;5.82;;;4.43;;
793;SDS011;380;48.738;9.214;2022-07-22T09:15:07;6.47;;;5.10;;
793;SDS011;380;48.738;9.214;2022-07-22T09:17:40;5.90;;;5.30;;
793;SDS011;380;48.738;9.214;2022-07-22T09:20:16;7.28;;;5.72;;
793;SDS011;380;48.738;9.214;2022-07-22T09:22:51;6.82;;;5.30;;
793;SDS011;380;48.738;9.214;2022-07-22T09:33:07;6.90;;;6.20;;
793;SDS011;380;48.738;9.214;2022-07-22T09:35:37;7.40;;;5.70;;
793;SDS011;380;48.738;9.214;2022-07-22T09:38:13;6.20;;;5.13;;
793;SDS011;380;48.738;9.214;2022-07-22T09:40:46;7.15;;;5.63;;
793;SDS011;380;48.738;9.214;2022-07-22T09:43:13;7.10;;;5.50;;
793;SDS011;380;48.738;9.214;2022-07-22T09:45:52;9.50;;;5.70;;
793;SDS011;380;48.738;9.214;2022-07-22T09:48:32;8.60;;;5.13;;
793;SDS011;380;48.738;9.214;2022-07-22T09:51:16;5.80;;;5.20;;
793;SDS011;380;48.738;9.214;2022-07-22T09:53:43;5.88;;;5.15;;
793;SDS011;380;48.738;9.214;2022-07-22T09:56:09;6.25;;;5.45;;
793;SDS011;380;48.738;9.214;2022-07-22T09:58:35;5.28;;;4.78;;
793;SDS011;380;48.738;9.214;2022-07-22T10:01:11;6.38;;;5.78;;
793;SDS011;380;48.738;9.214;2022-07-22T10:06:30;7.13;;;6.43;;
793;SDS011;380;48.738;9.214;2022-07-22T10:08:56;8.15;;;6.00;;
793;SDS011;380;48.738;9.214;2022-07-22T10:11:34;9.02;;;6.10;;
793;SDS011;380;48.738;9.214;2022-07-22T10:14:10;8.05;;;5.85;;
793;SDS011;380;48.738;9.214;2022-07-22T10:16:39;7.63;;;5.63;;
793;SDS011;380;48.738;9.214;2022-07-22T10:19:11;6.30;;;5.70;;
793;SDS011;380;48.738;9.214;2022-07-22T10:21:40;7.60;;;5.97;;
793;SDS011;380;48.738;9.214;2022-07-22T10:24:15;7.45;;;6.78;;
793;SDS011;380;48.738;9.214;2022-07-22T10:26:55;9.02;;;6.03;;
793;SDS011;380;48.738;9.214;2022-07-22T10:29:29;6.65;;;5.53;;
793;SDS011;380;48.738;9.214;2022-07-22T10:35:28;9.10;;;7.00;;
793;SDS011;380;48.738;9.214;2022-07-22T10:40:25;5.63;;;5.05;;
793;SDS011;380;48.738;9.214;2022-07-22T10:47:56;6.63;;;5.35;;
793;SDS011;380;48.738;9.214;2022-07-22T10:53:08;7.07;;;6.10;;
793;SDS011;380;48.738;9.214;2022-07-22T10:55:35;6.65;;;6.05;;
793;SDS011;380;48.738;9.214;2022-07-22T11:00:51;6.18;;;5.57;;
793;SDS011;380;48.738;9.214;2022-07-22T11:03:30;5.90;;;5.30;;
793;SDS011;380;48.738;9.214;2022-07-22T11:08:43;8.15;;;6.22;;
793;SDS011;380;48.738;9.214;2022-07-22T11:11:09;6.68;;;5.72;;
793;SDS011;380;48.738;9.214;2022-07-22T11:13:44;5.85;;;5.32;;
793;SDS011;380;48.738;9.214;2022-07-22T11:18:44;8.60;;;5.20;;
793;SDS011;380;48.738;9.214;2022-07-22T11:23:40;7.90;;;5.40;;
793;SDS011;380;48.738;9.214;2022-07-22T11:26:09;6.70;;;4.88;;
793;SDS011;380;48.738;9.214;2022-07-22T11:28:42;6.90;;;5.60;;
793;SDS011;380;48.738;9.214;2022-07-22T11:31:09;6.05;;;5.45;;
793;SDS011;380;48.738;9.214;2022-07-22T11:33:35;7.55;;;5.18;;
793;SDS011;380;48.738;9.214;2022-07-22T11:36:04;5.25;;;4.80;;
793;SDS011;380;48.738;9.214;2022-07-22T11:38:46;5.47;;;4.78;;
793;SDS011;380;48.738;9.214;2022-07-22T11:41:13;6.63;;;5.30;;
793;SDS011;380;48.738;9.214;2022-07-22T11:46:09;5.80;;;5.22;;
793;SDS011;380;48.738;9.214;2022-07-22T11:48:37;5.30;;;4.80;;
793;SDS011;380;48.738;9.214;2022-07-22T11:51:06;7.75;;;4.97;;
793;SDS011;380;48.738;9.214;2022-07-22T11:53:34;6.00;;;5.38;;
793;SDS011;380;48.738;9.214;2022-07-22T11:56:01;6.07;;;5.40;;
793;SDS011;380;48.738;9.214;2022-07-22T12:01:00;6.72;;;4.97;;
793;SDS011;380;48.738;9.214;2022-07-22T12:03:26;4.97;;;4.20;;
793;SDS011;380;48.738;9.214;2022-07-22T12:05:53;5.05;;;4.22;;
793;SDS011;380;48.738;9.214;2022-07-22T12:08:19;6.30;;;5.20;;
793;SDS011;380;48.738;9.214;2022-07-22T12:10:45;5.82;;;5.03;;
793;SDS011;380;48.738;9.214;2022-07-22T12:13:11;4.88;;;4.38;;
793;SDS011;380;48.738;9.214;2022-07-22T12:15:40;5.43;;;4.93;;
793;SDS011;380;48.738;9.214;2022-07-22T12:18:22;4.72;;;4.32;;
793;SDS011;380;48.738;9.214;2022-07-22T12:20:49;8.00;;;5.60;;
793;SDS011;380;48.738;9.214;2022-07-22T12:23:16;4.70;;;4.28;;
793;SDS011;380;48.738;9.214;2022-07-22T12:25:51;6.05;;;4.88;;
793;SDS011;380;48.738;9.214;2022-07-22T12:28:18;6.57;;;5.50;;
793;SDS011;380;48.738;9.214;2022-07-22T12:30:47;5.25;;;4.75;;
793;SDS011;380;48.738;9.214;2022-07-22T12:33:13;5.35;;;4.80;;
793;SDS011;380;48.738;9.214;2022-07-22T12:35:40;8.38;;;5.57;;
793;SDS011;380;48.738;9.214;2022-07-22T12:38:09;4.15;;;3.75;;
793;SDS011;380;48.738;9.214;2022-07-22T12:40:36;5.07;;;4.57;;
793;SDS011;380;48.738;9.214;2022-07-22T12:43:08;5.20;;;4.63;;
793;SDS011;380;48.738;9.214;2022-07-22T12:45:35;6.50;;;4.35;;
793;SDS011;380;48.738;9.214;2022-07-22T12:55:32;6.00;;;4.53;;
793;SDS011;380;48.738;9.214;2022-07-22T12:57:59;5.10;;;4.43;;
793;SDS011;380;48.738;9.214;2022-07-22T13:00:26;6.32;;;5.05;;
793;SDS011;380;48.738;9.214;2022-07-22T13:02:55;6.07;;;4.95;;
793;SDS011;380;48.738;9.214;2022-07-22T13:05:22;4.43;;;3.78;;
793;SDS011;380;48.738;9.214;2022-07-22T13:07:48;5.07;;;4.38;;
793;SDS011;380;48.738;9.214;2022-07-22T13:10:15;5.18;;;4.25;;
793;SDS011;380;48.738;9.214;2022-07-22T13:12:43;5.60;;;5.10;;
793;SDS011;380;48.738;9.214;2022-07-22T13:15:09;5.82;;;4.90;;
793;SDS011;380;48.738;9.214;2022-07-22T13:17:36;5.43;;;4.38;;
793;SDS011;380;48.738;9.214;2022-07-22T13:20:03;8.88;;;4.53;;
793;SDS011;380;48.738;9.214;2022-07-22T13:22:29;5.82;;;4.88;;
793;SDS011;380;48.738;9.214;2022-07-22T13:24:55;6.70;;;5.00;;
793;SDS011;380;48.738;9.214;2022-07-22T13:27:21;6.68;;;5.07;;
793;SDS011;380;48.738;9.214;2022-07-22T13:29:47;5.15;;;4.65;;
793;SDS011;380;48.738;9.214;2022-07-22T13:32:13;5.15;;;4.30;;
793;SDS011;380;48.738;9.214;2022-07-22T13:34:39;5.53;;;4.13;;
793;SDS011;380;48.738;9.214;2022-07-22T13:37:05;5.03;;;4.53;;
793;SDS011;380;48.738;9.214;2022-07-22T13:39:31;7.68;;;4.38;;
793;SDS011;380;48.738;9.214;2022-07-22T13:41:57;4.82;;;4.30;;
793;SDS011;380;48.738;9.214;2022-07-22T13:44:23;4.97;;;4.20;;
793;SDS011;380;48.738;9.214;2022-07-22T13:46:49;6.57;;;4.28;;
793;SDS011;380;48.738;9.214;2022-07-22T13:49:15;5.05;;;4.07;;
793;SDS011;380;48.738;9.214;2022-07-22T13:51:41;4.95;;;4.55;;
793;SDS011;380;48.738;9.214;2022-07-22T13:54:07;5.15;;;4.60;;
793;SDS011;380;48.738;9.214;2022-07-22T13:56:34;4.88;;;4.38;;
793;SDS011;380;48.738;9.214;2022-07-22T13:59:00;5.55;;;4.97;;
793;SDS011;380;48.738;9.214;2022-07-22T14:01:26;5.10;;;4.60;;
793;SDS011;380;48.738;9.214;2022-07-22T14:03:52;6.22;;;4.50;;
793;SDS011;380;48.738;9.214;2022-07-22T14:06:18;5.35;;;4.30;;
793;SDS011;380;48.738;9.214;2022-07-22T14:08:44;6.70;;;4.50;;
793;SDS011;380;48.738;9.214;2022-07-22T14:11:10;4.55;;;3.58;;
793;SDS011;380;48.738;9.214;2022-07-22T14:13:36;6.43;;;5.07;;
793;SDS011;380;48.738;9.214;2022-07-22T14:16:02;4.80;;;3.88;;
793;SDS011;380;48.738;9.214;2022-07-22T14:18:47;4.15;;;3.63;;
793;SDS011;380;48.738;9.214;2022-07-22T14:21:13;4.50;;;3.50;;
793;SDS011;380;48.738;9.214;2022-07-22T14:23:39;6.82;;;4.13;;
793;SDS011;380;48.738;9.214;2022-07-22T14:26:05;4.50;;;4.00;;
793;SDS011;380;48.738;9.214;2022-07-22T14:28:31;4.95;;;4.18;;
793;SDS011;380;48.738;9.214;2022-07-22T14:30:57;6.00;;;4.20;;
793;SDS011;380;48.738;9.214;2022-07-22T14:33:23;4.82;;;4.32;;
793;SDS011;380;48.738;9.214;2022-07-22T14:35:49;4.72;;;4.22;;
793;SDS011;380;48.738;9.214;2022-07-22T14:38:15;4.55;;;4.15;;
793;SDS011;380;48.738;9.214;2022-07-22T14:40:43;5.22;;;3.97;;
793;SDS011;380;48.738;9.214;2022-07-22T14:43:09;4.47;;;4.07;;
793;SDS011;380;48.738;9.214;2022-07-22T14:45:35;6.65;;;4.30;;
793;SDS011;380;48.738;9.214;2022-07-22T14:48:01;4.30;;;3.85;;
793;SDS011;380;48.738;9.214;2022-07-22T14:50:27;6.70;;;4.30;;
793;SDS011;380;48.738;9.214;2022-07-22T14:52:53;4.90;;;3.90;;
793;SDS011;380;48.738;9.214;2022-07-22T14:55:19;5.43;;;4.60;;
793;SDS011;380;48.738;9.214;2022-07-22T14:57:45;6.28;;;4.18;;
793;SDS011;380;48.738;9.214;2022-07-22T15:00:11;5.00;;;4.50;;
793;SDS011;380;48.738;9.214;2022-07-22T15:02:38;8.70;;;4.20;;
793;SDS011;380;48.738;9.214;2022-07-22T15:05:04;5.47;;;4.10;;
793;SDS011;380;48.738;9.214;2022-07-22T15:07:30;5.68;;;4.80;;
793;SDS011;380;48.738;9.214;2022-07-22T15:09:56;5.35;;;4.85;;
793;SDS011;380;48.738;9.214;2022-07-22T15:12:22;4.85;;;4.38;;
793;SDS011;380;48.738;9.214;2022-07-22T15:14:48;4.43;;;4.03;;
793;SDS011;380;48.738;9.214;2022-07-22T15:17:14;4.50;;;3.85;;
793;SDS011;380;48.738;9.214;2022-07-22T15:19:40;4.55;;;3.80;;
793;SDS011;380;48.738;9.214;2022-07-22T15:22:07;5.57;;;4.47;;
793;SDS011;380;48.738;9.214;2022-07-22T15:24:33;4.88;;;4.38;;
793;SDS011;380;48.738;9.214;2022-07-22T15:26:59;5.10;;;4.60;;
793;SDS011;380;48.738;9.214;2022-07-22T15:29:25;5.13;;;4.40;;
793;SDS011;380;48.738;9.214;2022-07-22T15:31:51;4.88;;;4.38;;
793;SDS011;380;48.738;9.214;2022-07-22T15:34:17;4.43;;;3.65;;
793;SDS011;380;48.738;9.214;2022-07-22T15:36:44;7.13;;;4.07;;
793;SDS011;380;48.738;9.214;2022-07-22T15:39:10;4.85;;;4.35;;
793;SDS011;380;48.738;9.214;2022-07-22T15:41:36;5.18;;;3.85;;
793;SDS011;380;48.738;9.214;2022-07-22T15:44:02;5.38;;;4.03;;
793;SDS011;380;48.738;9.214;2022-07-22T15:46:29;5.82;;;4.60;;
793;SDS011;380;48.738;9.214;2022-07-22T15:48:55;4.43;;;4.03;;
793;SDS011;380;48.738;9.214;2022-07-22T15:51:21;4.90;;;4.05;;
793;SDS011;380;48.738;9.214;2022-07-22T15:53:47;4.70;;;4.30;;
793;SDS011;380;48.738;9.214;2022-07-22T15:56:13;5.80;;;4.00;;
793;SDS011;380;48.738;9.214;2022-07-22T15:58:39;4.32;;;3.60;;
793;SDS011;380;48.738;9.214;2022-07-22T16:01:24;4.80;;;4.18;;
793;SDS011;380;48.738;9.214;2022-07-22T16:03:50;5.32;;;4.68;;
793;SDS011;380;48.738;9.214;2022-07-22T16:06:16;7.03;;;4.72;;
793;SDS011;380;48.738;9.214;2022-07-22T16:08:42;4.80;;;3.67;;
793;SDS011;380;48.738;9.214;2022-07-22T16:11:08;5.88;;;4.03;;
793;SDS011;380;48.738;9.214;2022-07-22T16:13:34;5.20;;;4.47;;
793;SDS011;380;48.738;9.214;2022-07-22T16:16:00;4.97;;;3.95;;
793;SDS011;380;48.738;9.214;2022-07-22T16:18:26;4.75;;;3.63;;
793;SDS011;380;48.738;9.214;2022-07-22T16:20:52;6.97;;;4.38;;
793;SDS011;380;48.738;9.214;2022-07-22T16:23:18;6.70;;;4.00;;
793;SDS011;380;48.738;9.214;2022-07-22T16:25:44;4.53;;;4.00;;
793;SDS011;380;48.738;9.214;2022-07-22T16:28:10;4.43;;;3.88;;
793;SDS011;380;48.738;9.214;2022-07-22T16:30:36;4.72;;;4.25;;
793;SDS011;380;48.738;9.214;2022-07-22T16:33:02;7.40;;;4.45;;
793;SDS011;380;48.738;9.214;2022-07-22T16:35:28;7.18;;;4.88;;
793;SDS011;380;48.738;9.214;2022-07-22T16:37:54;4.80;;;4.30;;
793;SDS011;380;48.738;9.214;2022-07-22T16:40:20;5.85;;;3.90;;
793;SDS011;380;48.738;9.214;2022-07-22T16:42:46;5.28;;;4.45;;
793;SDS011;380;48.738;9.214;2022-07-22T16:45:12;5.30;;;4.43;;
793;SDS011;380;48.738;9.214;2022-07-22T16:47:38;4.22;;;3.83;;
793;SDS011;380;48.738;9.214;2022-07-22T16:50:04;4.05;;;3.65;;
793;SDS011;380;48.738;9.214;2022-07-22T16:52:31;4.75;;;4.28;;
793;SDS011;380;48.738;9.214;2022-07-22T16:54:57;5.15;;;4.60;;
793;SDS011;380;48.738;9.214;2022-07-22T16:57:23;6.22;;;4.25;;
793;SDS011;380;48.738;9.214;2022-07-22T16:59:49;4.60;;;3.92;;
793;SDS011;380;48.738;9.214;2022-07-22T17:02:15;5.15;;;3.97;;
793;SDS011;380;48.738;9.214;2022-07-22T17:04:41;5.18;;;3.97;;
793;SDS011;380;48.738;9.214;2022-07-22T17:07:07;5.53;;;4.38;;
793;SDS011;380;48.738;9.214;2022-07-22T17:09:33;4.50;;;3.97;;
793;SDS011;380;48.738;9.214;2022-07-22T17:11:59;4.60;;;3.63;;
793;SDS011;380;48.738;9.214;2022-07-22T17:14:29;4.97;;;4.30;;
793;SDS011;380;48.738;9.214;2022-07-22T17:16:55;5.05;;;4.55;;
793;SDS011;380;48.738;9.214;2022-07-22T17:19:21;5.43;;;4.20;;
793;SDS011;380;48.738;9.214;2022-07-22T17:21:47;6.13;;;4.40;;
793;SDS011;380;48.738;9.214;2022-07-22T17:24:13;5.63;;;3.97;;
793;SDS011;380;48.738;9.214;2022-07-22T17:26:39;4.15;;;3.78;;
793;SDS011;380;48.738;9.214;2022-07-22T17:29:05;6.80;;;4.95;;
793;SDS011;380;48.738;9.214;2022-07-22T17:31:32;4.55;;;4.10;;
793;SDS011;380;48.738;9.214;2022-07-22T17:33:58;4.82;;;4.18;;
793;SDS011;380;48.738;9.214;2022-07-22T17:36:24;4.90;;;4.32;;
793;SDS011;380;48.738;9.214;2022-07-22T17:38:50;4.47;;;4.07;;
793;SDS011;380;48.738;9.214;2022-07-22T17:41:16;5.63;;;5.00;;